createdAt,value
2018-05-03T00:00:56.693Z,7.50
2018-05-03T00:01:56.783Z,8.00
2018-05-03T00:02:56.708Z,8.50
2018-05-03T00:03:56.761Z,7.90
2018-05-03T00:04:56.739Z,7.60
2018-05-03T00:05:56.733Z,7.40
2018-05-03T00:06:56.793Z,7.70
2018-05-03T00:07:56.766Z,7.50
2018-05-03T00:08:56.767Z,8.50
2018-05-03T00:09:56.796Z,7.50
2018-05-03T00:10:56.851Z,7.80
2018-05-03T00:11:56.803Z,9.20
2018-05-03T00:12:56.817Z,9.30
2018-05-03T00:13:56.830Z,9.40
2018-05-03T00:14:56.838Z,9.10
2018-05-03T00:15:56.851Z,7.60
2018-05-03T00:16:56.892Z,7.60
2018-05-03T00:17:56.865Z,6.90
2018-05-03T00:18:56.892Z,7.30
2018-05-03T00:19:56.885Z,7.70
2018-05-03T00:20:56.894Z,7.00
2018-05-03T00:21:56.940Z,7.30
2018-05-03T00:22:56.922Z,7.50
2018-05-03T00:23:56.962Z,6.90
2018-05-03T00:24:56.980Z,7.50
2018-05-03T00:25:56.952Z,7.50
2018-05-03T00:26:56.964Z,7.30
2018-05-03T00:27:56.974Z,7.50
2018-05-03T00:28:56.988Z,9.60
2018-05-03T00:29:57.057Z,8.60
2018-05-03T00:30:57.009Z,9.40
2018-05-03T00:31:57.021Z,9.20
2018-05-03T00:32:57.028Z,9.70
2018-05-03T00:33:57.035Z,7.90
2018-05-03T00:34:57.084Z,8.10
2018-05-03T00:35:57.072Z,8.10
2018-05-03T00:36:57.131Z,8.20
2018-05-03T00:37:57.079Z,7.60
2018-05-03T00:38:57.088Z,8.20
2018-05-03T00:39:57.103Z,8.00
2018-05-03T00:40:57.129Z,7.80
2018-05-03T00:41:57.125Z,8.10
2018-05-03T00:42:57.187Z,8.50
2018-05-03T00:43:57.144Z,8.60
2018-05-03T00:44:57.155Z,9.30
2018-05-03T00:45:57.166Z,9.80
2018-05-03T00:46:57.176Z,9.10
2018-05-03T00:47:57.250Z,10.20
2018-05-03T00:48:57.314Z,9.40
2018-05-03T00:49:57.213Z,10.10
2018-05-03T00:50:57.224Z,8.80
2018-05-03T00:51:57.304Z,8.50
2018-05-03T00:52:57.242Z,7.70
2018-05-03T00:53:57.256Z,9.50
2018-05-03T00:54:57.262Z,9.30
2018-05-03T00:55:57.292Z,8.80
2018-05-03T00:56:57.336Z,8.70
2018-05-03T00:57:57.295Z,8.80
2018-05-03T00:58:57.342Z,8.30
2018-05-03T00:59:57.317Z,8.00
2018-05-03T01:00:57.343Z,8.40
2018-05-03T01:01:57.374Z,8.80
2018-05-03T01:02:57.386Z,8.20
2018-05-03T01:03:57.367Z,8.60
2018-05-03T01:04:57.375Z,8.80
2018-05-03T01:05:57.383Z,8.80
2018-05-03T01:06:57.430Z,8.70
2018-05-03T01:07:57.411Z,8.50
2018-05-03T01:08:57.415Z,8.10
2018-05-03T01:09:57.463Z,8.80
2018-05-03T01:10:57.481Z,7.80
2018-05-03T01:11:57.444Z,8.20
2018-05-03T01:12:57.478Z,8.00
2018-05-03T01:13:57.472Z,8.40
2018-05-03T01:14:57.513Z,8.40
2018-05-03T01:15:57.500Z,8.60
2018-05-03T01:16:57.515Z,8.20
2018-05-03T01:17:57.529Z,7.80
2018-05-03T01:18:57.524Z,9.20
2018-05-03T01:19:57.581Z,9.20
2018-05-03T01:20:57.584Z,8.70
2018-05-03T01:21:57.555Z,8.80
2018-05-03T01:22:57.565Z,8.80
2018-05-03T01:23:57.580Z,8.20
2018-05-03T01:24:57.588Z,8.90
2018-05-03T01:25:57.633Z,8.70
2018-05-03T01:26:57.622Z,8.50
2018-05-03T01:27:57.681Z,29.80
2018-05-03T01:28:57.659Z,13.70
2018-05-03T01:29:57.644Z,9.20
2018-05-03T01:30:57.661Z,8.20
2018-05-03T01:31:57.668Z,8.20
2018-05-03T01:32:57.675Z,8.10
2018-05-03T01:33:57.725Z,8.70
2018-05-03T01:34:57.695Z,7.50
2018-05-03T01:35:57.709Z,8.00
2018-05-03T01:36:57.760Z,8.20
2018-05-03T01:37:57.728Z,8.10
2018-05-03T01:38:57.771Z,8.40
2018-05-03T01:39:57.794Z,8.60
2018-05-03T01:40:57.776Z,8.70
2018-05-03T01:41:57.789Z,8.50
2018-05-03T01:42:57.797Z,8.10
2018-05-03T01:43:57.850Z,8.20
2018-05-03T01:44:57.815Z,8.10
2018-05-03T01:45:57.829Z,8.90
2018-05-03T01:46:57.824Z,11.60
2018-05-03T01:47:57.835Z,23.10
2018-05-03T01:48:57.897Z,15.60
2018-05-03T01:49:57.909Z,14.30
2018-05-03T01:50:57.885Z,11.00
2018-05-03T01:51:57.892Z,9.60
2018-05-03T01:52:57.898Z,8.50
2018-05-03T01:53:57.923Z,8.40
2018-05-03T01:54:57.962Z,8.10
2018-05-03T01:55:57.920Z,9.50
2018-05-03T01:56:57.935Z,7.70
2018-05-03T01:57:57.948Z,9.00
2018-05-03T01:58:57.964Z,8.50
2018-05-03T01:59:58.016Z,9.70
2018-05-03T02:00:57.987Z,8.00
2018-05-03T02:01:58.022Z,7.90
2018-05-03T02:02:58.014Z,8.10
2018-05-03T02:03:58.021Z,7.60
2018-05-03T02:04:58.047Z,8.20
2018-05-03T02:05:58.040Z,7.50
2018-05-03T02:06:58.083Z,7.30
2018-05-03T02:07:58.063Z,7.40
2018-05-03T02:08:58.062Z,7.60
2018-05-03T02:09:58.075Z,7.40
2018-05-03T02:10:58.084Z,7.40
2018-05-03T02:11:58.160Z,7.10
2018-05-03T02:12:58.120Z,7.20
2018-05-03T02:13:58.126Z,7.50
2018-05-03T02:14:58.138Z,7.60
2018-05-03T02:15:58.231Z,7.60
2018-05-03T02:16:58.162Z,7.00
2018-05-03T02:17:58.216Z,7.50
2018-05-03T02:18:58.181Z,7.40
2018-05-03T02:19:58.182Z,7.00
2018-05-03T02:20:58.211Z,7.30
2018-05-03T02:21:58.213Z,7.40
2018-05-03T02:22:58.276Z,7.10
2018-05-03T02:23:58.243Z,7.10
2018-05-03T02:24:58.277Z,6.80
2018-05-03T02:25:58.255Z,7.10
2018-05-03T02:26:58.280Z,7.60
2018-05-03T02:27:58.314Z,7.10
2018-05-03T02:28:58.292Z,7.10
2018-05-03T02:29:58.354Z,7.40
2018-05-03T02:30:58.298Z,7.40
2018-05-03T02:31:58.339Z,7.80
2018-05-03T02:32:58.329Z,7.70
2018-05-03T02:33:58.338Z,7.30
2018-05-03T02:34:58.340Z,7.10
2018-05-03T02:35:58.418Z,7.30
2018-05-03T02:36:58.361Z,7.30
2018-05-03T02:37:58.381Z,7.30
2018-05-03T02:38:58.433Z,7.00
2018-05-03T02:39:58.405Z,7.50
2018-05-03T02:40:58.427Z,7.50
2018-05-03T02:41:58.415Z,8.80
2018-05-03T02:42:58.468Z,7.10
2018-05-03T02:43:58.453Z,7.10
2018-05-03T02:44:58.478Z,7.30
2018-05-03T02:45:58.483Z,7.40
2018-05-03T02:46:58.482Z,7.30
2018-05-03T02:47:58.526Z,7.10
2018-05-03T02:48:58.490Z,7.50
2018-05-03T02:49:58.513Z,7.20
2018-05-03T02:50:58.515Z,7.10
2018-05-03T02:51:58.584Z,7.30
2018-05-03T02:52:58.572Z,7.10
2018-05-03T02:53:58.554Z,7.20
2018-05-03T02:54:58.564Z,7.30
2018-05-03T02:55:58.600Z,7.70
2018-05-03T02:56:58.584Z,8.00
2018-05-03T02:57:58.618Z,8.10
2018-05-03T02:58:58.609Z,7.60
2018-05-03T02:59:58.615Z,7.60
2018-05-03T03:00:58.634Z,7.20
2018-05-03T03:01:58.632Z,7.50
2018-05-03T03:02:58.692Z,7.50
2018-05-03T03:03:58.650Z,7.50
2018-05-03T03:04:58.660Z,7.30
2018-05-03T03:05:58.722Z,7.10
2018-05-03T03:06:58.708Z,7.20
2018-05-03T03:07:58.695Z,7.70
2018-05-03T03:08:58.712Z,7.50
2018-05-03T03:09:58.726Z,7.30
2018-05-03T03:10:58.787Z,7.60
2018-05-03T03:11:58.747Z,7.60
2018-05-03T03:12:58.765Z,7.30
2018-05-03T03:13:58.822Z,7.60
2018-05-03T03:14:58.765Z,7.90
2018-05-03T03:15:58.815Z,7.40
2018-05-03T03:16:58.803Z,7.50
2018-05-03T03:17:58.818Z,7.90
2018-05-03T03:18:58.856Z,7.80
2018-05-03T03:19:58.820Z,7.80
2018-05-03T03:20:58.877Z,7.60
2018-05-03T03:21:58.917Z,8.00
2018-05-03T03:22:58.862Z,7.70
2018-05-03T03:23:58.868Z,8.00
2018-05-03T03:24:58.886Z,7.90
2018-05-03T03:25:58.918Z,8.00
2018-05-03T03:26:58.903Z,7.50
2018-05-03T03:27:58.906Z,8.50
2018-05-03T03:28:58.984Z,7.40
2018-05-03T03:29:58.937Z,8.40
2018-05-03T03:30:58.937Z,9.10
2018-05-03T03:31:58.957Z,9.20
2018-05-03T03:32:58.958Z,8.90
2018-05-03T03:33:58.999Z,8.50
2018-05-03T03:34:58.979Z,8.70
2018-05-03T03:35:59.007Z,8.60
2018-05-03T03:36:59.070Z,7.60
2018-05-03T03:37:59.032Z,8.20
2018-05-03T03:38:59.027Z,7.90
2018-05-03T03:39:59.054Z,8.00
2018-05-03T03:40:59.058Z,8.00
2018-05-03T03:41:59.069Z,8.00
2018-05-03T03:42:59.110Z,9.00
2018-05-03T03:43:59.089Z,8.50
2018-05-03T03:44:59.089Z,8.00
2018-05-03T03:45:59.105Z,7.70
2018-05-03T03:46:59.139Z,8.70
2018-05-03T03:47:59.169Z,8.00
2018-05-03T03:48:59.156Z,8.30
2018-05-03T03:49:59.155Z,8.20
2018-05-03T03:50:59.182Z,8.00
2018-05-03T03:51:59.164Z,8.20
2018-05-03T03:52:59.184Z,9.50
2018-05-03T03:53:59.220Z,8.50
2018-05-03T03:54:59.222Z,9.40
2018-05-03T03:55:59.205Z,8.50
2018-05-03T03:56:59.230Z,8.30
2018-05-03T03:57:59.290Z,8.50
2018-05-03T03:58:59.256Z,12.30
2018-05-03T03:59:59.244Z,14.80
2018-05-03T04:00:59.271Z,13.00
2018-05-03T04:01:59.266Z,15.10
2018-05-03T04:02:59.300Z,14.50
2018-05-03T04:03:59.313Z,15.30
2018-05-03T04:04:59.344Z,24.10
2018-05-03T04:05:59.317Z,13.00
2018-05-03T04:06:59.327Z,9.70
2018-05-03T04:07:59.352Z,9.00
2018-05-03T04:08:59.351Z,8.40
2018-05-03T04:09:59.375Z,8.60
2018-05-03T04:10:59.406Z,8.50
2018-05-03T04:11:59.384Z,8.70
2018-05-03T04:12:59.396Z,8.70
2018-05-03T04:13:59.395Z,8.00
2018-05-03T04:14:59.500Z,8.50
2018-05-03T04:15:59.456Z,8.50
2018-05-03T04:16:59.479Z,8.70
2018-05-03T04:17:59.437Z,9.00
2018-05-03T04:18:59.451Z,8.80
2018-05-03T04:19:59.483Z,8.90
2018-05-03T04:20:59.481Z,8.80
2018-05-03T04:21:59.509Z,9.40
2018-05-03T04:22:59.527Z,8.80
2018-05-03T04:23:59.516Z,8.90
2018-05-03T04:24:59.525Z,9.30
2018-05-03T04:25:59.535Z,9.50
2018-05-03T04:26:59.544Z,9.10
2018-05-03T04:27:59.574Z,9.30
2018-05-03T04:28:59.553Z,9.80
2018-05-03T04:29:59.564Z,9.70
2018-05-03T04:30:59.610Z,9.80
2018-05-03T04:31:59.596Z,9.50
2018-05-03T04:32:59.621Z,9.50
2018-05-03T04:33:59.613Z,9.20
2018-05-03T04:34:59.630Z,9.10
2018-05-03T04:35:59.640Z,9.10
2018-05-03T04:36:59.655Z,9.80
2018-05-03T04:37:59.667Z,9.10
2018-05-03T04:38:59.667Z,9.40
2018-05-03T04:39:59.680Z,10.10
2018-05-03T04:40:59.707Z,9.70
2018-05-03T04:41:59.735Z,11.20
2018-05-03T04:42:59.712Z,11.90
2018-05-03T04:43:59.732Z,10.80
2018-05-03T04:44:59.737Z,10.40
2018-05-03T04:45:59.740Z,10.30
2018-05-03T04:46:59.820Z,10.20
2018-05-03T04:47:59.755Z,10.90
2018-05-03T04:48:59.794Z,13.30
2018-05-03T04:49:59.787Z,12.60
2018-05-03T04:50:59.792Z,13.00
2018-05-03T04:51:59.835Z,13.00
2018-05-03T04:52:59.813Z,11.50
2018-05-03T04:53:59.864Z,11.70
2018-05-03T04:54:59.855Z,10.90
2018-05-03T04:55:59.851Z,10.80
2018-05-03T04:56:59.866Z,10.80
2018-05-03T04:57:59.885Z,11.50
2018-05-03T04:58:59.924Z,11.20
2018-05-03T04:59:59.906Z,10.30
2018-05-03T05:00:59.908Z,10.00
2018-05-03T05:01:59.915Z,9.60
2018-05-03T05:02:59.919Z,9.70
2018-05-03T05:03:59.989Z,10.00
2018-05-03T05:04:59.939Z,10.20
2018-05-03T05:05:59.949Z,10.50
2018-05-03T05:06:59.981Z,10.50
2018-05-03T05:08:00.004Z,10.10
2018-05-03T05:08:59.978Z,10.70
2018-05-03T05:10:00.003Z,10.10
2018-05-03T05:11:00.014Z,10.10
2018-05-03T05:12:00.035Z,11.30
2018-05-03T05:13:00.079Z,11.80
2018-05-03T05:14:00.045Z,11.40
2018-05-03T05:15:00.056Z,11.00
2018-05-03T05:16:00.057Z,10.90
2018-05-03T05:17:00.070Z,10.40
2018-05-03T05:18:00.147Z,10.90
2018-05-03T05:19:00.099Z,10.50
2018-05-03T05:20:00.119Z,10.30
2018-05-03T05:21:00.113Z,9.60
2018-05-03T05:22:00.135Z,9.20
2018-05-03T05:23:00.163Z,9.30
2018-05-03T05:24:00.150Z,9.30
2018-05-03T05:25:00.176Z,9.70
2018-05-03T05:26:00.186Z,9.00
2018-05-03T05:27:00.194Z,9.60
2018-05-03T05:28:00.228Z,9.50
2018-05-03T05:29:00.231Z,10.00
2018-05-03T05:30:00.218Z,9.00
2018-05-03T05:31:00.243Z,9.80
2018-05-03T05:32:00.233Z,11.00
2018-05-03T05:33:00.300Z,9.70
2018-05-03T05:34:00.260Z,9.70
2018-05-03T05:35:00.284Z,9.60
2018-05-03T05:36:00.291Z,9.00
2018-05-03T05:37:00.291Z,9.20
2018-05-03T05:38:00.355Z,9.00
2018-05-03T05:39:00.337Z,9.30
2018-05-03T05:40:00.323Z,8.80
2018-05-03T05:41:00.344Z,9.00
2018-05-03T05:42:00.355Z,8.50
2018-05-03T05:43:00.397Z,10.10
2018-05-03T05:44:00.390Z,9.40
2018-05-03T05:45:00.394Z,9.10
2018-05-03T05:46:00.456Z,8.90
2018-05-03T05:47:00.427Z,9.90
2018-05-03T05:48:00.433Z,8.60
2018-05-03T05:49:00.445Z,9.00
2018-05-03T05:50:00.440Z,8.70
2018-05-03T05:51:00.535Z,9.40
2018-05-03T05:52:00.494Z,9.50
2018-05-03T05:53:00.485Z,8.30
2018-05-03T05:54:00.491Z,9.60
2018-05-03T05:55:00.518Z,8.50
2018-05-03T05:56:00.504Z,9.10
2018-05-03T05:57:00.562Z,8.10
2018-05-03T05:58:00.537Z,10.80
2018-05-03T05:59:00.543Z,13.70
2018-05-03T06:00:00.561Z,9.20
2018-05-03T06:01:00.576Z,11.90
2018-05-03T06:02:00.621Z,9.10
2018-05-03T06:03:00.585Z,9.80
2018-05-03T06:04:00.601Z,9.50
2018-05-03T06:05:00.673Z,8.50
2018-05-03T06:06:00.637Z,8.60
2018-05-03T06:07:00.633Z,7.90
2018-05-03T06:08:00.671Z,8.80
2018-05-03T06:09:00.663Z,8.90
2018-05-03T06:10:00.693Z,8.20
2018-05-03T06:11:00.685Z,7.30
2018-05-03T06:12:00.700Z,7.70
2018-05-03T06:13:00.755Z,7.20
2018-05-03T06:14:00.716Z,7.50
2018-05-03T06:15:00.733Z,7.70
2018-05-03T06:16:00.746Z,9.10
2018-05-03T06:17:00.754Z,8.70
2018-05-03T06:18:00.838Z,8.50
2018-05-03T06:19:00.793Z,7.80
2018-05-03T06:20:00.797Z,8.70
2018-05-03T06:21:00.806Z,7.60
2018-05-03T06:22:00.815Z,7.70
2018-05-03T06:23:00.844Z,8.30
2018-05-03T06:24:00.868Z,7.40
2018-05-03T06:25:00.855Z,8.80
2018-05-03T06:26:00.871Z,7.90
2018-05-03T06:27:00.868Z,8.20
2018-05-03T06:28:00.915Z,7.40
2018-05-03T06:29:00.923Z,7.80
2018-05-03T06:30:00.920Z,7.20
2018-05-03T06:31:00.931Z,7.60
2018-05-03T06:32:01.026Z,6.90
2018-05-03T06:33:01.025Z,7.10
2018-05-03T06:34:00.956Z,6.50
2018-05-03T06:35:01.002Z,7.40
2018-05-03T06:36:00.989Z,7.30
2018-05-03T06:37:01.004Z,7.30
2018-05-03T06:38:01.021Z,8.00
2018-05-03T06:39:01.086Z,7.40
2018-05-03T06:40:01.077Z,7.20
2018-05-03T06:41:01.046Z,6.70
2018-05-03T06:42:01.057Z,9.00
2018-05-03T06:43:01.130Z,7.70
2018-05-03T06:44:01.079Z,7.80
2018-05-03T06:45:01.219Z,7.40
2018-05-03T06:46:01.123Z,7.00
2018-05-03T06:47:01.119Z,8.50
2018-05-03T06:48:01.205Z,6.40
2018-05-03T06:49:01.142Z,6.80
2018-05-03T06:50:01.182Z,7.10
2018-05-03T06:51:01.163Z,7.50
2018-05-03T06:52:01.180Z,6.70
2018-05-03T06:53:01.213Z,6.50
2018-05-03T06:54:01.196Z,6.60
2018-05-03T06:55:01.202Z,6.70
2018-05-03T06:56:01.228Z,9.40
2018-05-03T06:57:01.279Z,6.40
2018-05-03T06:58:01.255Z,6.30
2018-05-03T06:59:01.267Z,6.10
2018-05-03T07:00:01.267Z,6.20
2018-05-03T07:01:01.300Z,7.40
2018-05-03T07:02:01.426Z,6.60
2018-05-03T07:03:01.353Z,6.20
2018-05-03T07:04:01.424Z,6.70
2018-05-03T07:05:01.332Z,6.50
2018-05-03T07:06:01.331Z,6.20
2018-05-03T07:07:01.365Z,6.80
2018-05-03T07:08:01.399Z,7.90
2018-05-03T07:09:01.376Z,7.70
2018-05-03T07:10:01.420Z,5.80
2018-05-03T07:11:01.390Z,6.50
2018-05-03T07:12:01.416Z,7.40
2018-05-03T07:13:01.445Z,6.00
2018-05-03T07:14:01.427Z,6.20
2018-05-03T07:15:01.476Z,6.30
2018-05-03T07:16:01.492Z,6.60
2018-05-03T07:17:01.529Z,6.60
2018-05-03T07:18:01.489Z,6.80
2018-05-03T07:19:01.512Z,6.70
2018-05-03T07:20:01.503Z,6.60
2018-05-03T07:21:01.538Z,6.50
2018-05-03T07:22:01.572Z,6.40
2018-05-03T07:23:01.530Z,6.40
2018-05-03T07:24:01.561Z,6.40
2018-05-03T07:25:01.605Z,6.70
2018-05-03T07:26:01.589Z,7.90
2018-05-03T07:27:01.584Z,12.30
2018-05-03T07:28:01.610Z,10.80
2018-05-03T07:29:01.611Z,12.40
2018-05-03T07:30:01.667Z,10.60
2018-05-03T07:31:01.653Z,8.50
2018-05-03T07:32:01.642Z,7.30
2018-05-03T07:33:01.684Z,12.90
2018-05-03T07:34:01.696Z,8.30
2018-05-03T07:35:01.681Z,8.60
2018-05-03T07:36:01.693Z,8.10
2018-05-03T07:37:01.730Z,6.70
2018-05-03T07:38:01.712Z,7.30
2018-05-03T07:39:01.736Z,7.30
2018-05-03T07:40:01.785Z,6.60
2018-05-03T07:41:01.804Z,6.10
2018-05-03T07:42:01.761Z,6.00
2018-05-03T07:43:01.768Z,6.80
2018-05-03T07:44:01.794Z,6.80
2018-05-03T07:45:01.879Z,9.30
2018-05-03T07:46:01.817Z,6.80
2018-05-03T07:47:01.856Z,7.70
2018-05-03T07:48:01.840Z,6.90
2018-05-03T07:49:01.864Z,8.20
2018-05-03T07:50:01.858Z,11.30
2018-05-03T07:51:01.875Z,10.00
2018-05-03T07:52:01.932Z,7.10
2018-05-03T07:53:01.891Z,6.80
2018-05-03T07:54:01.904Z,7.10
2018-05-03T07:55:01.921Z,7.30
2018-05-03T07:56:01.962Z,8.40
2018-05-03T07:57:01.958Z,6.70
2018-05-03T07:58:01.998Z,7.60
2018-05-03T07:59:01.969Z,9.40
2018-05-03T08:00:01.991Z,10.50
2018-05-03T08:01:02.006Z,8.00
2018-05-03T08:02:02.100Z,7.10
2018-05-03T08:03:02.178Z,6.80
2018-05-03T08:04:02.020Z,8.40
2018-05-03T08:05:02.027Z,7.30
2018-05-03T08:06:02.039Z,8.40
2018-05-03T08:07:02.073Z,7.10
2018-05-03T08:08:02.080Z,8.00
2018-05-03T08:09:02.164Z,11.50
2018-05-03T08:10:02.101Z,11.80
2018-05-03T08:11:02.121Z,11.70
2018-05-03T08:12:02.110Z,9.80
2018-05-03T08:13:02.138Z,11.10
2018-05-03T08:14:02.177Z,12.90
2018-05-03T08:15:02.161Z,11.00
2018-05-03T08:16:02.173Z,10.40
2018-05-03T08:17:02.248Z,8.70
2018-05-03T08:18:02.260Z,8.00
2018-05-03T08:19:02.223Z,8.00
2018-05-03T08:20:02.252Z,7.80
2018-05-03T08:21:02.230Z,8.10
2018-05-03T08:22:02.241Z,9.60
2018-05-03T08:23:02.249Z,9.10
2018-05-03T08:24:02.258Z,9.00
2018-05-03T08:25:02.313Z,8.40
2018-05-03T08:26:02.290Z,8.20
2018-05-03T08:27:02.289Z,8.00
2018-05-03T08:28:02.301Z,8.60
2018-05-03T08:29:02.339Z,7.80
2018-05-03T08:30:02.386Z,7.30
2018-05-03T08:31:02.370Z,7.00
2018-05-03T08:32:02.354Z,6.90
2018-05-03T08:33:02.422Z,7.40
2018-05-03T08:34:02.380Z,7.20
2018-05-03T08:35:02.397Z,7.30
2018-05-03T08:36:02.406Z,7.80
2018-05-03T08:37:02.408Z,7.90
2018-05-03T08:38:02.455Z,7.10
2018-05-03T08:39:02.441Z,6.50
2018-05-03T08:40:02.455Z,6.70
2018-05-03T08:41:02.462Z,6.60
2018-05-03T08:42:02.541Z,7.30
2018-05-03T08:43:02.481Z,7.10
2018-05-03T08:44:02.518Z,7.40
2018-05-03T08:45:02.503Z,6.90
2018-05-03T08:46:02.520Z,6.90
2018-05-03T08:47:02.580Z,6.90
2018-05-03T08:48:02.644Z,7.10
2018-05-03T08:49:02.597Z,7.00
2018-05-03T08:50:02.572Z,7.10
2018-05-03T08:51:02.576Z,7.00
2018-05-03T08:52:02.605Z,6.60
2018-05-03T08:53:02.669Z,6.80
2018-05-03T08:54:02.617Z,6.60
2018-05-03T08:55:02.645Z,6.70
2018-05-03T08:56:02.657Z,6.60
2018-05-03T08:57:02.646Z,6.60
2018-05-03T08:58:02.703Z,8.10
2018-05-03T08:59:02.695Z,9.10
2018-05-03T09:00:02.703Z,6.30
2018-05-03T09:01:02.721Z,6.40
2018-05-03T09:02:02.722Z,6.80
2018-05-03T09:03:02.782Z,7.70
2018-05-03T09:04:02.748Z,6.60
2018-05-03T09:05:02.754Z,6.50
2018-05-03T09:06:02.781Z,6.70
2018-05-03T09:07:02.768Z,6.60
2018-05-03T09:08:02.826Z,6.40
2018-05-03T09:09:02.831Z,6.50
2018-05-03T09:10:02.807Z,8.40
2018-05-03T09:11:02.842Z,6.70
2018-05-03T09:12:02.828Z,6.40
2018-05-03T09:13:02.878Z,6.70
2018-05-03T09:14:02.874Z,6.70
2018-05-03T09:15:02.887Z,6.90
2018-05-03T09:16:02.874Z,6.20
2018-05-03T09:17:02.899Z,6.10
2018-05-03T09:18:02.914Z,6.00
2018-05-03T09:19:02.970Z,6.80
2018-05-03T09:20:02.936Z,6.50
2018-05-03T09:21:02.937Z,6.30
2018-05-03T09:22:02.950Z,6.10
2018-05-03T09:23:02.956Z,6.00
2018-05-03T09:24:03.010Z,6.20
2018-05-03T09:25:02.986Z,6.80
2018-05-03T09:26:03.005Z,6.60
2018-05-03T09:27:03.023Z,6.10
2018-05-03T09:28:03.035Z,6.20
2018-05-03T09:29:03.060Z,7.90
2018-05-03T09:30:03.044Z,7.10
2018-05-03T09:31:03.062Z,6.50
2018-05-03T09:32:03.125Z,6.60
2018-05-03T09:33:03.082Z,6.00
2018-05-03T09:34:03.101Z,6.30
2018-05-03T09:35:03.122Z,6.10
2018-05-03T09:36:03.113Z,6.20
2018-05-03T09:37:03.170Z,6.90
2018-05-03T09:38:03.138Z,6.70
2018-05-03T09:39:03.227Z,6.50
2018-05-03T09:40:03.172Z,6.60
2018-05-03T09:41:03.179Z,6.70
2018-05-03T09:42:03.199Z,7.90
2018-05-03T09:43:03.251Z,8.00
2018-05-03T09:44:03.214Z,6.00
2018-05-03T09:45:03.249Z,7.20
2018-05-03T09:46:03.261Z,5.90
2018-05-03T09:47:03.251Z,6.50
2018-05-03T09:48:03.267Z,6.50
2018-05-03T09:49:03.278Z,6.10
2018-05-03T09:50:03.352Z,6.50
2018-05-03T09:51:03.303Z,6.30
2018-05-03T09:52:03.313Z,6.20
2018-05-03T09:53:03.345Z,6.20
2018-05-03T09:54:03.326Z,6.00
2018-05-03T09:55:03.381Z,5.90
2018-05-03T09:56:03.351Z,6.20
2018-05-03T09:57:03.384Z,7.90
2018-05-03T09:58:03.373Z,7.30
2018-05-03T09:59:03.389Z,6.70
2018-05-03T10:00:03.419Z,6.70
2018-05-03T10:01:03.443Z,6.80
2018-05-03T10:02:03.437Z,6.30
2018-05-03T10:03:03.448Z,6.20
2018-05-03T10:04:03.727Z,6.60
2018-05-03T10:05:03.469Z,6.50
2018-05-03T10:06:03.482Z,7.50
2018-05-03T10:07:03.504Z,7.20
2018-05-03T10:08:03.506Z,6.40
2018-05-03T10:09:03.537Z,7.00
2018-05-03T10:10:03.571Z,6.30
2018-05-03T10:11:03.548Z,6.60
2018-05-03T10:12:03.584Z,6.60
2018-05-03T10:13:03.562Z,7.30
2018-05-03T10:14:03.582Z,7.20
2018-05-03T10:15:03.612Z,6.90
2018-05-03T10:16:03.591Z,7.20
2018-05-03T10:17:03.659Z,6.90
2018-05-03T10:18:03.632Z,7.60
2018-05-03T10:19:03.647Z,7.10
2018-05-03T10:20:03.647Z,7.00
2018-05-03T10:21:03.659Z,7.00
2018-05-03T10:22:03.798Z,7.60
2018-05-03T10:23:03.725Z,9.50
2018-05-03T10:24:03.700Z,7.40
2018-05-03T10:25:03.736Z,8.00
2018-05-03T10:26:03.722Z,7.50
2018-05-03T10:27:03.780Z,6.50
2018-05-03T10:28:03.749Z,6.60
2018-05-03T10:29:03.762Z,6.90
2018-05-03T10:30:03.798Z,6.90
2018-05-03T10:31:03.775Z,7.00
2018-05-03T10:32:03.814Z,8.20
2018-05-03T10:33:03.811Z,6.20
2018-05-03T10:34:03.839Z,6.40
2018-05-03T10:35:03.883Z,6.00
2018-05-03T10:36:03.954Z,5.80
2018-05-03T10:37:03.873Z,6.00
2018-05-03T10:38:03.947Z,5.50
2018-05-03T10:39:03.889Z,5.40
2018-05-03T10:40:03.917Z,5.90
2018-05-03T10:41:04.207Z,5.40
2018-05-03T10:42:04.095Z,5.60
2018-05-03T10:43:03.933Z,5.30
2018-05-03T10:44:03.947Z,5.80
2018-05-03T10:45:03.987Z,5.80
2018-05-03T10:46:03.978Z,5.70
2018-05-03T10:47:03.986Z,5.80
2018-05-03T10:48:04.000Z,6.40
2018-05-03T10:49:04.091Z,5.90
2018-05-03T10:50:04.050Z,5.70
2018-05-03T10:51:04.050Z,6.40
2018-05-03T10:52:04.040Z,7.70
2018-05-03T10:53:04.048Z,7.10
2018-05-03T10:54:04.131Z,6.90
2018-05-03T10:55:04.102Z,6.70
2018-05-03T10:56:04.116Z,7.60
2018-05-03T10:57:04.106Z,9.20
2018-05-03T10:58:04.114Z,6.70
2018-05-03T10:59:04.182Z,6.60
2018-05-03T11:00:04.137Z,7.10
2018-05-03T11:01:04.151Z,6.80
2018-05-03T11:02:04.181Z,7.00
2018-05-03T11:03:04.277Z,7.00
2018-05-03T11:04:04.224Z,6.50
2018-05-03T11:05:04.206Z,6.70
2018-05-03T11:06:04.311Z,6.80
2018-05-03T11:07:04.224Z,6.60
2018-05-03T11:08:04.272Z,6.90
2018-05-03T11:09:04.260Z,7.20
2018-05-03T11:10:04.301Z,7.20
2018-05-03T11:11:04.411Z,7.40
2018-05-03T11:12:04.329Z,8.10
2018-05-03T11:13:04.310Z,7.80
2018-05-03T11:14:04.364Z,7.50
2018-05-03T11:15:04.331Z,7.30
2018-05-03T11:16:04.347Z,7.10
2018-05-03T11:17:04.438Z,7.20
2018-05-03T11:18:04.423Z,7.70
2018-05-03T11:19:04.435Z,7.40
2018-05-03T11:20:04.413Z,7.50
2018-05-03T11:21:04.462Z,6.70
2018-05-03T11:22:04.423Z,7.10
2018-05-03T11:23:04.471Z,7.70
2018-05-03T11:24:04.445Z,7.80
2018-05-03T11:25:04.468Z,7.50
2018-05-03T11:26:04.531Z,8.00
2018-05-03T11:27:04.476Z,8.60
2018-05-03T11:28:04.508Z,7.30
2018-05-03T11:29:04.690Z,8.30
2018-05-03T11:30:04.523Z,7.40
2018-05-03T11:31:04.660Z,9.80
2018-05-03T11:32:04.551Z,8.10
2018-05-03T11:33:04.711Z,8.10
2018-05-03T11:34:04.580Z,9.30
2018-05-03T11:35:04.761Z,8.20
2018-05-03T11:36:04.605Z,8.30
2018-05-03T11:37:04.640Z,8.20
2018-05-03T11:38:04.639Z,7.40
2018-05-03T11:39:04.683Z,8.00
2018-05-03T11:40:04.681Z,7.90
2018-05-03T11:41:04.676Z,7.40
2018-05-03T11:42:04.672Z,9.20
2018-05-03T11:43:04.688Z,8.50
2018-05-03T11:44:04.841Z,8.30
2018-05-03T11:45:04.719Z,8.70
2018-05-03T11:46:04.723Z,8.90
2018-05-03T11:47:04.752Z,7.80
2018-05-03T11:48:04.760Z,11.70
2018-05-03T11:49:04.777Z,8.60
2018-05-03T11:50:04.811Z,8.40
2018-05-03T11:51:04.790Z,8.50
2018-05-03T11:52:04.830Z,9.80
2018-05-03T11:53:04.811Z,9.30
2018-05-03T11:54:04.824Z,9.90
2018-05-03T11:55:04.884Z,8.70
2018-05-03T11:56:04.861Z,9.00
2018-05-03T11:57:04.874Z,9.50
2018-05-03T11:58:04.884Z,9.90
2018-05-03T11:59:04.983Z,9.20
2018-05-03T12:00:04.941Z,8.40
2018-05-03T12:01:04.914Z,8.60
2018-05-03T12:02:04.953Z,9.00
2018-05-03T12:03:04.970Z,8.30
2018-05-03T12:04:04.968Z,8.50
2018-05-03T12:05:04.967Z,8.50
2018-05-03T12:06:05.017Z,8.60
2018-05-03T12:07:05.058Z,8.90
2018-05-03T12:08:05.010Z,8.60
2018-05-03T12:09:05.014Z,8.10
2018-05-03T12:10:05.050Z,8.10
2018-05-03T12:11:05.043Z,7.90
2018-05-03T12:12:05.082Z,8.50
2018-05-03T12:13:05.154Z,8.40
2018-05-03T12:14:05.142Z,7.30
2018-05-03T12:15:05.099Z,7.20
2018-05-03T12:16:05.122Z,9.70
2018-05-03T12:17:05.137Z,7.20
2018-05-03T12:18:05.145Z,7.50
2018-05-03T12:19:05.171Z,7.50
2018-05-03T12:20:05.183Z,7.20
2018-05-03T12:21:05.204Z,7.40
2018-05-03T12:22:05.200Z,7.00
2018-05-03T12:23:05.200Z,6.60
2018-05-03T12:24:05.251Z,6.60
2018-05-03T12:25:05.258Z,7.80
2018-05-03T12:26:05.247Z,7.50
2018-05-03T12:27:05.272Z,7.20
2018-05-03T12:28:05.278Z,7.60
2018-05-03T12:29:05.329Z,7.30
2018-05-03T12:30:05.289Z,7.80
2018-05-03T12:31:05.358Z,7.50
2018-05-03T12:32:05.333Z,7.20
2018-05-03T12:33:05.340Z,7.40
2018-05-03T12:34:05.373Z,7.30
2018-05-03T12:35:05.352Z,7.80
2018-05-03T12:36:05.422Z,8.20
2018-05-03T12:37:05.427Z,7.90
2018-05-03T12:38:05.433Z,7.10
2018-05-03T12:39:05.420Z,6.90
2018-05-03T12:40:05.445Z,7.80
2018-05-03T12:41:05.447Z,7.50
2018-05-03T12:42:05.497Z,6.30
2018-05-03T12:43:05.471Z,6.40
2018-05-03T12:44:05.489Z,6.90
2018-05-03T12:45:05.509Z,9.60
2018-05-03T12:46:05.500Z,7.60
2018-05-03T12:47:05.567Z,6.60
2018-05-03T12:48:05.582Z,7.00
2018-05-03T12:49:05.551Z,6.90
2018-05-03T12:50:05.559Z,6.60
2018-05-03T12:51:05.592Z,6.70
2018-05-03T12:52:05.584Z,6.20
2018-05-03T12:53:05.630Z,6.10
2018-05-03T12:54:05.619Z,6.10
2018-05-03T12:55:05.619Z,6.00
2018-05-03T12:56:05.643Z,5.90
2018-05-03T12:57:05.645Z,5.60
2018-05-03T12:58:05.704Z,5.50
2018-05-03T12:59:05.688Z,5.50
2018-05-03T13:00:05.695Z,5.70
2018-05-03T13:01:05.722Z,8.10
2018-05-03T13:02:05.772Z,6.20
2018-05-03T13:03:05.730Z,6.20
2018-05-03T13:04:05.745Z,5.70
2018-05-03T13:05:05.760Z,5.60
2018-05-03T13:06:05.767Z,5.30
2018-05-03T13:07:05.828Z,6.00
2018-05-03T13:08:05.803Z,5.70
2018-05-03T13:09:05.814Z,5.20
2018-05-03T13:10:05.883Z,5.10
2018-05-03T13:11:05.842Z,5.40
2018-05-03T13:12:05.846Z,6.00
2018-05-03T13:13:05.887Z,6.80
2018-05-03T13:14:05.868Z,5.40
2018-05-03T13:15:05.927Z,5.50
2018-05-03T13:16:05.934Z,5.70